sensor_id;sensor_type;location;lat;lon;timestamp;P1;durP1;ratioP1;P2;durP2;ratioP2
32333;SDS011;18810;53.040;8.850;2022-12-10T00:01:04;102.22;;;39.10;;
32333;SDS011;18810;53.040;8.850;2022-12-10T00:03:31;86.65;;;36.58;;
32333;SDS011;18810;53.040;8.850;2022-12-10T00:05:59;97.95;;;38.50;;
32333;SDS011;18810;53.040;8.850;2022-12-10T00:08:26;98.18;;;38.75;;
32333;SDS011;18810;53.040;8.850;2022-12-10T00:10:52;94.60;;;37.20;;
32333;SDS011;18810;53.040;8.850;2022-12-10T00:13:17;89.03;;;36.30;;
32333;SDS011;18810;53.040;8.850;2022-12-10T00:15:43;95.20;;;39.50;;
32333;SDS011;18810;53.040;8.850;2022-12-10T00:18:09;96.15;;;37.10;;
32333;SDS011;18810;53.040;8.850;2022-12-10T00:20:36;93.28;;;36.63;;
32333;SDS011;18810;53.040;8.850;2022-12-10T00:23:02;88.28;;;35.90;;
32333;SDS011;18810;53.040;8.850;2022-12-10T00:25:28;100.28;;;38.10;;
32333;SDS011;18810;53.040;8.850;2022-12-10T00:27:54;101.28;;;38.65;;
32333;SDS011;18810;53.040;8.850;2022-12-10T00:30:19;100.90;;;38.40;;
32333;SDS011;18810;53.040;8.850;2022-12-10T00:32:45;109.28;;;40.90;;
32333;SDS011;18810;53.040;8.850;2022-12-10T00:35:11;94.47;;;38.08;;
32333;SDS011;18810;53.040;8.850;2022-12-10T00:37:36;96.55;;;38.80;;
32333;SDS011;18810;53.040;8.850;2022-12-10T00:40:02;104.95;;;40.08;;
32333;SDS011;18810;53.040;8.850;2022-12-10T00:42:28;96.82;;;37.03;;
32333;SDS011;18810;53.040;8.850;2022-12-10T00:44:54;92.38;;;37.53;;
32333;SDS011;18810;53.040;8.850;2022-12-10T00:47:20;97.82;;;36.80;;
32333;SDS011;18810;53.040;8.850;2022-12-10T00:49:45;92.45;;;37.67;;
32333;SDS011;18810;53.040;8.850;2022-12-10T00:52:42;103.55;;;39.40;;
32333;SDS011;18810;53.040;8.850;2022-12-10T00:55:13;88.97;;;38.28;;
32333;SDS011;18810;53.040;8.850;2022-12-10T00:58:20;92.93;;;38.40;;
32333;SDS011;18810;53.040;8.850;2022-12-10T01:01:05;93.38;;;37.25;;
32333;SDS011;18810;53.040;8.850;2022-12-10T01:03:54;98.22;;;38.08;;
32333;SDS011;18810;53.040;8.850;2022-12-10T01:06:44;90.63;;;36.35;;
32333;SDS011;18810;53.040;8.850;2022-12-10T01:09:36;94.22;;;36.58;;
32333;SDS011;18810;53.040;8.850;2022-12-10T01:12:24;103.70;;;40.00;;
32333;SDS011;18810;53.040;8.850;2022-12-10T01:14:57;90.97;;;36.47;;
32333;SDS011;18810;53.040;8.850;2022-12-10T01:17:43;96.60;;;37.78;;
32333;SDS011;18810;53.040;8.850;2022-12-10T01:20:08;100.75;;;39.13;;
32333;SDS011;18810;53.040;8.850;2022-12-10T01:22:35;100.95;;;37.55;;
32333;SDS011;18810;53.040;8.850;2022-12-10T01:25:00;93.32;;;37.83;;
32333;SDS011;18810;53.040;8.850;2022-12-10T01:27:26;93.45;;;38.38;;
32333;SDS011;18810;53.040;8.850;2022-12-10T01:29:52;97.13;;;40.35;;
32333;SDS011;18810;53.040;8.850;2022-12-10T01:32:18;96.40;;;38.78;;
32333;SDS011;18810;53.040;8.850;2022-12-10T01:34:43;92.78;;;37.88;;
32333;SDS011;18810;53.040;8.850;2022-12-10T01:37:09;90.60;;;37.38;;
32333;SDS011;18810;53.040;8.850;2022-12-10T01:39:35;98.00;;;38.78;;
32333;SDS011;18810;53.040;8.850;2022-12-10T01:42:01;89.28;;;36.67;;
32333;SDS011;18810;53.040;8.850;2022-12-10T01:46:54;93.15;;;39.75;;
32333;SDS011;18810;53.040;8.850;2022-12-10T01:49:37;86.43;;;39.13;;
32333;SDS011;18810;53.040;8.850;2022-12-10T01:52:06;99.30;;;37.78;;
32333;SDS011;18810;53.040;8.850;2022-12-10T01:54:35;96.50;;;38.28;;
32333;SDS011;18810;53.040;8.850;2022-12-10T01:57:04;80.68;;;36.55;;
32333;SDS011;18810;53.040;8.850;2022-12-10T01:59:46;88.80;;;37.30;;
32333;SDS011;18810;53.040;8.850;2022-12-10T02:13:18;85.93;;;35.55;;
32333;SDS011;18810;53.040;8.850;2022-12-10T02:15:50;96.65;;;38.42;;
32333;SDS011;18810;53.040;8.850;2022-12-10T02:18:21;95.90;;;37.22;;
32333;SDS011;18810;53.040;8.850;2022-12-10T02:21:00;91.18;;;38.03;;
32333;SDS011;18810;53.040;8.850;2022-12-10T02:23:32;87.68;;;35.72;;
32333;SDS011;18810;53.040;8.850;2022-12-10T02:31:18;90.38;;;36.20;;
32333;SDS011;18810;53.040;8.850;2022-12-10T02:33:49;87.78;;;37.38;;
32333;SDS011;18810;53.040;8.850;2022-12-10T02:36:19;87.55;;;36.50;;
32333;SDS011;18810;53.040;8.850;2022-12-10T02:38:48;86.78;;;35.65;;
32333;SDS011;18810;53.040;8.850;2022-12-10T02:41:21;88.10;;;36.55;;
32333;SDS011;18810;53.040;8.850;2022-12-10T02:43:52;83.30;;;34.55;;
32333;SDS011;18810;53.040;8.850;2022-12-10T02:46:24;83.72;;;35.50;;
32333;SDS011;18810;53.040;8.850;2022-12-10T02:48:53;80.72;;;35.10;;
32333;SDS011;18810;53.040;8.850;2022-12-10T02:51:19;84.10;;;35.40;;
32333;SDS011;18810;53.040;8.850;2022-12-10T02:53:46;77.07;;;34.55;;
32333;SDS011;18810;53.040;8.850;2022-12-10T02:59:19;84.40;;;34.78;;
32333;SDS011;18810;53.040;8.850;2022-12-10T03:07:27;75.95;;;33.97;;
32333;SDS011;18810;53.040;8.850;2022-12-10T03:10:03;76.78;;;34.05;;
32333;SDS011;18810;53.040;8.850;2022-12-10T03:12:48;79.10;;;34.50;;
32333;SDS011;18810;53.040;8.850;2022-12-10T03:15:19;80.57;;;34.22;;
32333;SDS011;18810;53.040;8.850;2022-12-10T03:17:46;81.95;;;36.88;;
32333;SDS011;18810;53.040;8.850;2022-12-10T03:20:13;81.57;;;36.10;;
32333;SDS011;18810;53.040;8.850;2022-12-10T03:22:42;78.07;;;34.53;;
32333;SDS011;18810;53.040;8.850;2022-12-10T03:25:10;72.78;;;33.95;;
32333;SDS011;18810;53.040;8.850;2022-12-10T03:27:40;76.28;;;34.47;;
32333;SDS011;18810;53.040;8.850;2022-12-10T03:30:07;73.85;;;32.53;;
32333;SDS011;18810;53.040;8.850;2022-12-10T03:32:33;83.07;;;35.75;;
32333;SDS011;18810;53.040;8.850;2022-12-10T03:35:00;78.90;;;35.42;;
32333;SDS011;18810;53.040;8.850;2022-12-10T03:37:37;82.10;;;36.30;;
32333;SDS011;18810;53.040;8.850;2022-12-10T03:40:04;76.45;;;33.80;;
32333;SDS011;18810;53.040;8.850;2022-12-10T03:42:31;82.28;;;36.47;;
32333;SDS011;18810;53.040;8.850;2022-12-10T03:45:00;74.18;;;33.05;;
32333;SDS011;18810;53.040;8.850;2022-12-10T03:47:26;85.53;;;35.90;;
32333;SDS011;18810;53.040;8.850;2022-12-10T03:49:52;76.72;;;34.33;;
32333;SDS011;18810;53.040;8.850;2022-12-10T03:52:17;76.75;;;35.28;;
32333;SDS011;18810;53.040;8.850;2022-12-10T03:54:43;77.20;;;35.42;;
32333;SDS011;18810;53.040;8.850;2022-12-10T03:57:08;76.47;;;33.58;;
32333;SDS011;18810;53.040;8.850;2022-12-10T03:59:34;77.05;;;34.83;;
32333;SDS011;18810;53.040;8.850;2022-12-10T04:02:00;69.88;;;32.95;;
32333;SDS011;18810;53.040;8.850;2022-12-10T04:04:26;81.25;;;36.28;;
32333;SDS011;18810;53.040;8.850;2022-12-10T04:06:52;76.95;;;35.45;;
32333;SDS011;18810;53.040;8.850;2022-12-10T04:09:17;79.93;;;36.17;;
32333;SDS011;18810;53.040;8.850;2022-12-10T04:11:43;68.30;;;31.83;;
32333;SDS011;18810;53.040;8.850;2022-12-10T04:14:10;77.10;;;33.75;;
32333;SDS011;18810;53.040;8.850;2022-12-10T04:16:55;66.78;;;31.52;;
32333;SDS011;18810;53.040;8.850;2022-12-10T04:19:21;69.03;;;33.25;;
32333;SDS011;18810;53.040;8.850;2022-12-10T04:21:48;80.28;;;35.13;;
32333;SDS011;18810;53.040;8.850;2022-12-10T04:24:33;73.28;;;34.35;;
32333;SDS011;18810;53.040;8.850;2022-12-10T04:27:26;81.53;;;35.80;;
32333;SDS011;18810;53.040;8.850;2022-12-10T04:29:54;76.88;;;34.92;;
32333;SDS011;18810;53.040;8.850;2022-12-10T04:32:21;79.38;;;35.50;;
32333;SDS011;18810;53.040;8.850;2022-12-10T04:34:48;71.28;;;32.35;;
32333;SDS011;18810;53.040;8.850;2022-12-10T04:37:14;74.78;;;33.83;;
32333;SDS011;18810;53.040;8.850;2022-12-10T04:39:40;73.55;;;34.60;;
32333;SDS011;18810;53.040;8.850;2022-12-10T04:42:06;75.18;;;33.50;;
32333;SDS011;18810;53.040;8.850;2022-12-10T04:44:32;75.13;;;33.42;;
32333;SDS011;18810;53.040;8.850;2022-12-10T04:46:58;77.70;;;34.42;;
32333;SDS011;18810;53.040;8.850;2022-12-10T04:49:24;71.20;;;33.00;;
32333;SDS011;18810;53.040;8.850;2022-12-10T04:51:50;67.75;;;31.70;;
32333;SDS011;18810;53.040;8.850;2022-12-10T04:54:17;72.10;;;33.00;;
32333;SDS011;18810;53.040;8.850;2022-12-10T04:56:43;74.68;;;33.55;;
32333;SDS011;18810;53.040;8.850;2022-12-10T04:59:09;73.75;;;31.05;;
32333;SDS011;18810;53.040;8.850;2022-12-10T05:01:36;72.50;;;32.22;;
32333;SDS011;18810;53.040;8.850;2022-12-10T05:04:02;78.50;;;34.70;;
32333;SDS011;18810;53.040;8.850;2022-12-10T05:06:29;76.38;;;33.00;;
32333;SDS011;18810;53.040;8.850;2022-12-10T05:08:55;74.70;;;33.10;;
32333;SDS011;18810;53.040;8.850;2022-12-10T05:11:22;76.85;;;34.33;;
32333;SDS011;18810;53.040;8.850;2022-12-10T05:13:49;75.25;;;34.00;;
32333;SDS011;18810;53.040;8.850;2022-12-10T05:16:17;82.05;;;34.55;;
32333;SDS011;18810;53.040;8.850;2022-12-10T05:18:44;86.63;;;36.20;;
32333;SDS011;18810;53.040;8.850;2022-12-10T05:21:11;79.90;;;36.92;;
32333;SDS011;18810;53.040;8.850;2022-12-10T05:23:39;87.43;;;35.53;;
32333;SDS011;18810;53.040;8.850;2022-12-10T05:26:11;80.32;;;35.22;;
32333;SDS011;18810;53.040;8.850;2022-12-10T05:28:47;83.53;;;34.55;;
32333;SDS011;18810;53.040;8.850;2022-12-10T05:31:15;85.78;;;38.00;;
32333;SDS011;18810;53.040;8.850;2022-12-10T05:33:43;89.93;;;37.72;;
32333;SDS011;18810;53.040;8.850;2022-12-10T05:36:09;81.65;;;34.22;;
32333;SDS011;18810;53.040;8.850;2022-12-10T05:38:36;73.22;;;33.30;;
32333;SDS011;18810;53.040;8.850;2022-12-10T05:41:10;84.13;;;36.70;;
32333;SDS011;18810;53.040;8.850;2022-12-10T05:43:39;85.38;;;37.20;;
32333;SDS011;18810;53.040;8.850;2022-12-10T05:46:06;77.60;;;35.20;;
32333;SDS011;18810;53.040;8.850;2022-12-10T05:48:35;85.35;;;37.03;;
32333;SDS011;18810;53.040;8.850;2022-12-10T05:51:09;79.80;;;34.05;;
32333;SDS011;18810;53.040;8.850;2022-12-10T05:53:40;80.43;;;35.42;;
32333;SDS011;18810;53.040;8.850;2022-12-10T05:56:10;82.22;;;35.03;;
32333;SDS011;18810;53.040;8.850;2022-12-10T05:58:38;78.38;;;34.33;;
32333;SDS011;18810;53.040;8.850;2022-12-10T06:01:06;75.05;;;33.92;;
32333;SDS011;18810;53.040;8.850;2022-12-10T06:03:36;79.65;;;35.47;;
32333;SDS011;18810;53.040;8.850;2022-12-10T06:06:03;79.30;;;34.63;;
32333;SDS011;18810;53.040;8.850;2022-12-10T06:08:30;78.60;;;34.05;;
32333;SDS011;18810;53.040;8.850;2022-12-10T06:10:56;75.43;;;34.78;;
32333;SDS011;18810;53.040;8.850;2022-12-10T06:13:25;75.85;;;34.25;;
32333;SDS011;18810;53.040;8.850;2022-12-10T06:15:50;80.55;;;35.00;;
32333;SDS011;18810;53.040;8.850;2022-12-10T06:18:16;88.90;;;36.35;;
32333;SDS011;18810;53.040;8.850;2022-12-10T06:20:42;78.43;;;35.13;;
32333;SDS011;18810;53.040;8.850;2022-12-10T06:23:07;91.90;;;37.15;;
32333;SDS011;18810;53.040;8.850;2022-12-10T06:25:33;78.13;;;33.10;;
32333;SDS011;18810;53.040;8.850;2022-12-10T06:27:58;91.43;;;37.13;;
32333;SDS011;18810;53.040;8.850;2022-12-10T06:30:24;82.15;;;36.03;;
32333;SDS011;18810;53.040;8.850;2022-12-10T06:32:50;82.90;;;36.33;;
32333;SDS011;18810;53.040;8.850;2022-12-10T06:35:16;89.50;;;36.70;;
32333;SDS011;18810;53.040;8.850;2022-12-10T06:37:41;77.95;;;35.15;;
32333;SDS011;18810;53.040;8.850;2022-12-10T06:40:07;84.35;;;36.25;;
32333;SDS011;18810;53.040;8.850;2022-12-10T06:42:33;89.68;;;37.28;;
32333;SDS011;18810;53.040;8.850;2022-12-10T06:45:01;91.78;;;37.10;;
32333;SDS011;18810;53.040;8.850;2022-12-10T06:47:26;89.28;;;35.97;;
32333;SDS011;18810;53.040;8.850;2022-12-10T06:49:52;87.40;;;38.28;;
32333;SDS011;18810;53.040;8.850;2022-12-10T06:52:18;93.28;;;38.88;;
32333;SDS011;18810;53.040;8.850;2022-12-10T06:54:44;85.30;;;35.92;;
32333;SDS011;18810;53.040;8.850;2022-12-10T06:57:09;81.68;;;36.03;;
32333;SDS011;18810;53.040;8.850;2022-12-10T06:59:35;82.97;;;36.80;;
32333;SDS011;18810;53.040;8.850;2022-12-10T07:02:01;87.05;;;36.47;;
32333;SDS011;18810;53.040;8.850;2022-12-10T07:04:26;86.75;;;38.08;;
32333;SDS011;18810;53.040;8.850;2022-12-10T07:06:52;79.20;;;35.70;;
32333;SDS011;18810;53.040;8.850;2022-12-10T07:09:18;92.28;;;37.55;;
32333;SDS011;18810;53.040;8.850;2022-12-10T07:11:43;90.10;;;37.70;;
32333;SDS011;18810;53.040;8.850;2022-12-10T07:14:12;91.18;;;38.72;;
32333;SDS011;18810;53.040;8.850;2022-12-10T07:16:40;79.45;;;35.25;;
32333;SDS011;18810;53.040;8.850;2022-12-10T07:19:07;83.97;;;35.80;;
32333;SDS011;18810;53.040;8.850;2022-12-10T07:21:35;95.93;;;37.33;;
32333;SDS011;18810;53.040;8.850;2022-12-10T07:24:03;86.32;;;37.30;;
32333;SDS011;18810;53.040;8.850;2022-12-10T07:26:33;91.10;;;37.75;;
32333;SDS011;18810;53.040;8.850;2022-12-10T07:29:00;85.85;;;36.42;;
32333;SDS011;18810;53.040;8.850;2022-12-10T07:31:27;88.38;;;37.33;;
32333;SDS011;18810;53.040;8.850;2022-12-10T07:33:54;82.03;;;37.60;;
32333;SDS011;18810;53.040;8.850;2022-12-10T07:36:22;82.72;;;37.60;;
32333;SDS011;18810;53.040;8.850;2022-12-10T07:38:48;89.18;;;37.42;;
32333;SDS011;18810;53.040;8.850;2022-12-10T07:41:15;89.05;;;36.28;;
32333;SDS011;18810;53.040;8.850;2022-12-10T07:43:47;75.93;;;34.35;;
32333;SDS011;18810;53.040;8.850;2022-12-10T07:46:14;82.32;;;35.88;;
32333;SDS011;18810;53.040;8.850;2022-12-10T07:48:43;75.40;;;35.08;;
32333;SDS011;18810;53.040;8.850;2022-12-10T07:51:09;90.35;;;38.33;;
32333;SDS011;18810;53.040;8.850;2022-12-10T07:53:35;86.03;;;35.45;;
32333;SDS011;18810;53.040;8.850;2022-12-10T07:56:01;71.70;;;34.38;;
32333;SDS011;18810;53.040;8.850;2022-12-10T07:58:27;76.05;;;34.30;;
32333;SDS011;18810;53.040;8.850;2022-12-10T08:00:53;86.13;;;36.65;;
32333;SDS011;18810;53.040;8.850;2022-12-10T08:03:18;84.22;;;35.92;;
32333;SDS011;18810;53.040;8.850;2022-12-10T08:05:44;89.75;;;35.80;;
32333;SDS011;18810;53.040;8.850;2022-12-10T08:08:12;83.25;;;35.92;;
32333;SDS011;18810;53.040;8.850;2022-12-10T08:10:38;86.32;;;37.75;;
32333;SDS011;18810;53.040;8.850;2022-12-10T08:13:04;85.10;;;36.83;;
32333;SDS011;18810;53.040;8.850;2022-12-10T08:15:31;90.03;;;38.15;;
32333;SDS011;18810;53.040;8.850;2022-12-10T08:17:57;89.30;;;37.00;;
32333;SDS011;18810;53.040;8.850;2022-12-10T08:20:23;91.72;;;37.35;;
32333;SDS011;18810;53.040;8.850;2022-12-10T08:22:50;85.85;;;35.85;;
32333;SDS011;18810;53.040;8.850;2022-12-10T08:25:16;85.95;;;35.70;;
32333;SDS011;18810;53.040;8.850;2022-12-10T08:27:42;85.05;;;35.30;;
32333;SDS011;18810;53.040;8.850;2022-12-10T08:30:08;89.95;;;35.90;;
32333;SDS011;18810;53.040;8.850;2022-12-10T08:32:34;94.00;;;39.22;;
32333;SDS011;18810;53.040;8.850;2022-12-10T08:35:02;91.60;;;36.83;;
32333;SDS011;18810;53.040;8.850;2022-12-10T08:37:28;97.30;;;36.92;;
32333;SDS011;18810;53.040;8.850;2022-12-10T08:39:53;88.38;;;34.55;;
32333;SDS011;18810;53.040;8.850;2022-12-10T08:42:19;86.18;;;35.00;;
32333;SDS011;18810;53.040;8.850;2022-12-10T08:44:45;79.88;;;33.20;;
32333;SDS011;18810;53.040;8.850;2022-12-10T08:47:10;71.35;;;32.05;;
32333;SDS011;18810;53.040;8.850;2022-12-10T08:49:36;78.03;;;33.33;;
32333;SDS011;18810;53.040;8.850;2022-12-10T08:52:02;86.28;;;34.35;;
32333;SDS011;18810;53.040;8.850;2022-12-10T08:54:27;76.03;;;33.72;;
32333;SDS011;18810;53.040;8.850;2022-12-10T08:56:53;73.30;;;31.27;;
32333;SDS011;18810;53.040;8.850;2022-12-10T08:59:19;73.22;;;34.05;;
32333;SDS011;18810;53.040;8.850;2022-12-10T09:01:44;77.78;;;32.58;;
32333;SDS011;18810;53.040;8.850;2022-12-10T09:04:10;83.60;;;33.90;;
32333;SDS011;18810;53.040;8.850;2022-12-10T09:06:37;84.03;;;33.40;;
32333;SDS011;18810;53.040;8.850;2022-12-10T09:09:03;76.05;;;33.22;;
32333;SDS011;18810;53.040;8.850;2022-12-10T09:11:30;79.18;;;31.95;;
32333;SDS011;18810;53.040;8.850;2022-12-10T09:13:57;73.70;;;30.85;;
32333;SDS011;18810;53.040;8.850;2022-12-10T09:16:30;76.07;;;30.92;;
32333;SDS011;18810;53.040;8.850;2022-12-10T09:19:00;82.25;;;34.70;;
32333;SDS011;18810;53.040;8.850;2022-12-10T09:21:28;77.05;;;32.53;;
32333;SDS011;18810;53.040;8.850;2022-12-10T09:23:55;74.88;;;31.42;;
32333;SDS011;18810;53.040;8.850;2022-12-10T09:26:21;67.70;;;30.45;;
32333;SDS011;18810;53.040;8.850;2022-12-10T09:28:47;77.63;;;35.90;;
32333;SDS011;18810;53.040;8.850;2022-12-10T09:31:14;70.85;;;33.55;;
32333;SDS011;18810;53.040;8.850;2022-12-10T09:33:41;72.15;;;30.77;;
32333;SDS011;18810;53.040;8.850;2022-12-10T09:36:08;71.50;;;30.58;;
32333;SDS011;18810;53.040;8.850;2022-12-10T09:38:37;61.50;;;29.00;;
32333;SDS011;18810;53.040;8.850;2022-12-10T09:51:31;60.15;;;27.65;;
32333;SDS011;18810;53.040;8.850;2022-12-10T09:54:00;63.70;;;30.42;;
32333;SDS011;18810;53.040;8.850;2022-12-10T09:56:33;65.53;;;30.02;;
32333;SDS011;18810;53.040;8.850;2022-12-10T09:59:06;64.60;;;30.05;;
32333;SDS011;18810;53.040;8.850;2022-12-10T10:02:20;66.90;;;29.67;;
32333;SDS011;18810;53.040;8.850;2022-12-10T10:04:44;62.33;;;28.45;;
32333;SDS011;18810;53.040;8.850;2022-12-10T10:07:12;55.85;;;27.15;;
32333;SDS011;18810;53.040;8.850;2022-12-10T10:09:45;58.30;;;26.73;;
32333;SDS011;18810;53.040;8.850;2022-12-10T10:12:15;60.30;;;28.92;;
32333;SDS011;18810;53.040;8.850;2022-12-10T10:14:44;55.53;;;27.05;;
32333;SDS011;18810;53.040;8.850;2022-12-10T10:17:20;60.88;;;27.55;;
32333;SDS011;18810;53.040;8.850;2022-12-10T10:20:01;59.45;;;27.92;;
32333;SDS011;18810;53.040;8.850;2022-12-10T10:22:27;55.90;;;26.90;;
32333;SDS011;18810;53.040;8.850;2022-12-10T10:24:53;65.20;;;28.42;;
32333;SDS011;18810;53.040;8.850;2022-12-10T10:29:48;64.32;;;29.35;;
32333;SDS011;18810;53.040;8.850;2022-12-10T10:34:45;61.65;;;26.83;;
32333;SDS011;18810;53.040;8.850;2022-12-10T10:37:14;60.90;;;28.48;;
32333;SDS011;18810;53.040;8.850;2022-12-10T10:39:46;60.38;;;28.30;;
32333;SDS011;18810;53.040;8.850;2022-12-10T10:42:21;65.82;;;29.75;;
32333;SDS011;18810;53.040;8.850;2022-12-10T10:44:52;58.08;;;27.23;;
32333;SDS011;18810;53.040;8.850;2022-12-10T10:47:51;56.75;;;26.42;;
32333;SDS011;18810;53.040;8.850;2022-12-10T10:50:12;58.95;;;26.42;;
32333;SDS011;18810;53.040;8.850;2022-12-10T10:52:50;59.95;;;27.48;;
32333;SDS011;18810;53.040;8.850;2022-12-10T10:55:48;56.35;;;26.90;;
32333;SDS011;18810;53.040;8.850;2022-12-10T10:58:15;61.60;;;28.20;;
32333;SDS011;18810;53.040;8.850;2022-12-10T11:00:55;57.97;;;26.00;;
32333;SDS011;18810;53.040;8.850;2022-12-10T11:03:24;62.08;;;27.38;;
32333;SDS011;18810;53.040;8.850;2022-12-10T11:05:51;62.72;;;26.88;;
32333;SDS011;18810;53.040;8.850;2022-12-10T11:08:18;66.63;;;32.45;;
32333;SDS011;18810;53.040;8.850;2022-12-10T11:11:04;58.28;;;27.75;;
32333;SDS011;18810;53.040;8.850;2022-12-10T11:13:35;59.47;;;27.83;;
32333;SDS011;18810;53.040;8.850;2022-12-10T11:18:56;62.70;;;30.90;;
32333;SDS011;18810;53.040;8.850;2022-12-10T11:21:31;48.92;;;26.70;;
32333;SDS011;18810;53.040;8.850;2022-12-10T11:23:59;41.72;;;24.30;;
32333;SDS011;18810;53.040;8.850;2022-12-10T11:26:56;34.63;;;18.60;;
32333;SDS011;18810;53.040;8.850;2022-12-10T11:38:47;27.73;;;15.27;;
32333;SDS011;18810;53.040;8.850;2022-12-10T11:40:49;42.30;;;24.00;;
32333;SDS011;18810;53.040;8.850;2022-12-10T11:43:45;41.97;;;21.60;;
32333;SDS011;18810;53.040;8.850;2022-12-10T11:46:38;37.90;;;20.30;;
32333;SDS011;18810;53.040;8.850;2022-12-10T11:52:09;33.25;;;18.27;;
32333;SDS011;18810;53.040;8.850;2022-12-10T11:54:58;34.88;;;19.02;;
32333;SDS011;18810;53.040;8.850;2022-12-10T12:00:26;30.35;;;16.88;;
32333;SDS011;18810;53.040;8.850;2022-12-10T12:08:39;22.98;;;14.20;;
32333;SDS011;18810;53.040;8.850;2022-12-10T12:14:12;32.30;;;17.88;;
32333;SDS011;18810;53.040;8.850;2022-12-10T12:16:45;32.25;;;16.70;;
32333;SDS011;18810;53.040;8.850;2022-12-10T12:19:17;31.27;;;16.33;;
32333;SDS011;18810;53.040;8.850;2022-12-10T12:21:50;31.38;;;17.23;;
32333;SDS011;18810;53.040;8.850;2022-12-10T12:24:20;29.60;;;15.63;;
32333;SDS011;18810;53.040;8.850;2022-12-10T12:27:07;27.63;;;14.80;;
32333;SDS011;18810;53.040;8.850;2022-12-10T12:30:12;29.00;;;15.68;;
32333;SDS011;18810;53.040;8.850;2022-12-10T12:35:39;29.50;;;15.77;;
32333;SDS011;18810;53.040;8.850;2022-12-10T12:38:30;32.58;;;16.30;;
32333;SDS011;18810;53.040;8.850;2022-12-10T12:41:17;29.98;;;14.55;;
32333;SDS011;18810;53.040;8.850;2022-12-10T12:43:52;27.58;;;15.23;;
32333;SDS011;18810;53.040;8.850;2022-12-10T12:46:38;25.67;;;14.18;;
32333;SDS011;18810;53.040;8.850;2022-12-10T12:54:38;35.20;;;16.63;;
32333;SDS011;18810;53.040;8.850;2022-12-10T12:57:16;29.55;;;16.17;;
32333;SDS011;18810;53.040;8.850;2022-12-10T13:05:23;27.13;;;14.48;;
32333;SDS011;18810;53.040;8.850;2022-12-10T13:13:22;34.08;;;16.77;;
32333;SDS011;18810;53.040;8.850;2022-12-10T13:15:51;32.10;;;17.13;;
32333;SDS011;18810;53.040;8.850;2022-12-10T13:20:51;37.10;;;18.52;;
32333;SDS011;18810;53.040;8.850;2022-12-10T13:24:18;41.47;;;21.15;;
32333;SDS011;18810;53.040;8.850;2022-12-10T13:30:25;41.67;;;21.00;;
32333;SDS011;18810;53.040;8.850;2022-12-10T13:33:03;40.72;;;18.88;;
32333;SDS011;18810;53.040;8.850;2022-12-10T13:35:44;36.10;;;17.95;;
32333;SDS011;18810;53.040;8.850;2022-12-10T13:38:20;37.08;;;18.83;;
32333;SDS011;18810;53.040;8.850;2022-12-10T13:41:01;33.33;;;18.75;;
32333;SDS011;18810;53.040;8.850;2022-12-10T13:43:54;40.97;;;19.95;;
32333;SDS011;18810;53.040;8.850;2022-12-10T13:46:53;38.17;;;19.40;;
32333;SDS011;18810;53.040;8.850;2022-12-10T13:49:22;40.47;;;20.52;;
32333;SDS011;18810;53.040;8.850;2022-12-10T14:02:37;41.95;;;21.45;;
32333;SDS011;18810;53.040;8.850;2022-12-10T14:07:45;49.63;;;25.45;;
32333;SDS011;18810;53.040;8.850;2022-12-10T14:10:14;52.53;;;25.73;;
32333;SDS011;18810;53.040;8.850;2022-12-10T14:12:42;48.80;;;24.40;;
32333;SDS011;18810;53.040;8.850;2022-12-10T14:15:22;45.15;;;21.27;;
32333;SDS011;18810;53.040;8.850;2022-12-10T14:17:54;50.10;;;24.20;;
32333;SDS011;18810;53.040;8.850;2022-12-10T14:20:26;50.80;;;24.80;;
32333;SDS011;18810;53.040;8.850;2022-12-10T14:22:56;53.10;;;25.50;;
32333;SDS011;18810;53.040;8.850;2022-12-10T14:25:46;52.92;;;24.92;;
32333;SDS011;18810;53.040;8.850;2022-12-10T14:28:15;49.38;;;23.48;;
32333;SDS011;18810;53.040;8.850;2022-12-10T14:30:43;53.65;;;24.95;;
32333;SDS011;18810;53.040;8.850;2022-12-10T14:33:15;49.63;;;24.27;;
32333;SDS011;18810;53.040;8.850;2022-12-10T14:35:46;52.28;;;23.58;;
32333;SDS011;18810;53.040;8.850;2022-12-10T14:38:17;51.58;;;24.35;;
32333;SDS011;18810;53.040;8.850;2022-12-10T14:40:58;51.45;;;23.55;;
32333;SDS011;18810;53.040;8.850;2022-12-10T14:43:46;54.28;;;25.50;;
32333;SDS011;18810;53.040;8.850;2022-12-10T14:46:13;53.20;;;24.63;;
32333;SDS011;18810;53.040;8.850;2022-12-10T14:48:50;48.28;;;24.58;;
32333;SDS011;18810;53.040;8.850;2022-12-10T14:51:21;53.08;;;25.02;;
32333;SDS011;18810;53.040;8.850;2022-12-10T14:53:50;49.92;;;24.30;;
32333;SDS011;18810;53.040;8.850;2022-12-10T15:01:40;51.63;;;26.00;;
32333;SDS011;18810;53.040;8.850;2022-12-10T15:04:14;57.47;;;27.58;;
32333;SDS011;18810;53.040;8.850;2022-12-10T15:06:42;54.65;;;26.05;;
32333;SDS011;18810;53.040;8.850;2022-12-10T15:09:29;54.63;;;25.48;;
32333;SDS011;18810;53.040;8.850;2022-12-10T15:11:56;55.85;;;26.75;;
32333;SDS011;18810;53.040;8.850;2022-12-10T15:14:23;51.50;;;26.05;;
32333;SDS011;18810;53.040;8.850;2022-12-10T15:16:51;52.50;;;25.67;;
32333;SDS011;18810;53.040;8.850;2022-12-10T15:21:56;54.10;;;25.88;;
32333;SDS011;18810;53.040;8.850;2022-12-10T15:24:32;60.47;;;28.73;;
32333;SDS011;18810;53.040;8.850;2022-12-10T15:27:02;55.97;;;27.48;;
32333;SDS011;18810;53.040;8.850;2022-12-10T15:29:39;53.75;;;26.13;;
32333;SDS011;18810;53.040;8.850;2022-12-10T15:32:05;54.67;;;27.73;;
32333;SDS011;18810;53.040;8.850;2022-12-10T15:34:46;53.78;;;27.20;;
32333;SDS011;18810;53.040;8.850;2022-12-10T15:37:18;58.08;;;27.77;;
32333;SDS011;18810;53.040;8.850;2022-12-10T15:39:56;56.30;;;25.95;;
32333;SDS011;18810;53.040;8.850;2022-12-10T15:42:27;57.25;;;27.20;;
32333;SDS011;18810;53.040;8.850;2022-12-10T15:45:24;53.20;;;25.88;;
32333;SDS011;18810;53.040;8.850;2022-12-10T15:47:51;54.38;;;27.10;;
32333;SDS011;18810;53.040;8.850;2022-12-10T15:50:17;54.58;;;25.55;;
32333;SDS011;18810;53.040;8.850;2022-12-10T15:52:43;59.60;;;27.58;;
32333;SDS011;18810;53.040;8.850;2022-12-10T15:55:10;53.22;;;27.05;;
32333;SDS011;18810;53.040;8.850;2022-12-10T15:57:38;52.42;;;25.63;;
32333;SDS011;18810;53.040;8.850;2022-12-10T16:00:20;52.15;;;24.42;;
32333;SDS011;18810;53.040;8.850;2022-12-10T16:02:55;47.13;;;24.65;;
32333;SDS011;18810;53.040;8.850;2022-12-10T16:05:24;57.15;;;27.70;;
32333;SDS011;18810;53.040;8.850;2022-12-10T16:07:53;60.28;;;28.63;;
32333;SDS011;18810;53.040;8.850;2022-12-10T16:10:20;56.58;;;26.35;;
32333;SDS011;18810;53.040;8.850;2022-12-10T16:12:49;52.40;;;26.15;;
32333;SDS011;18810;53.040;8.850;2022-12-10T16:15:21;53.70;;;26.33;;
32333;SDS011;18810;53.040;8.850;2022-12-10T16:17:49;54.92;;;26.35;;
32333;SDS011;18810;53.040;8.850;2022-12-10T16:20:26;57.95;;;28.20;;
32333;SDS011;18810;53.040;8.850;2022-12-10T16:22:53;53.33;;;27.23;;
32333;SDS011;18810;53.040;8.850;2022-12-10T16:25:21;54.65;;;26.45;;
32333;SDS011;18810;53.040;8.850;2022-12-10T16:27:48;66.32;;;28.63;;
32333;SDS011;18810;53.040;8.850;2022-12-10T16:33:01;58.20;;;30.17;;
32333;SDS011;18810;53.040;8.850;2022-12-10T16:35:28;56.10;;;28.80;;
32333;SDS011;18810;53.040;8.850;2022-12-10T16:40:26;59.28;;;29.98;;
32333;SDS011;18810;53.040;8.850;2022-12-10T16:42:53;56.55;;;27.65;;